Noti, Oregon
Current Conditions -  °F | °C
As of 1:54 AM on Wednesday 26 Nov 2014 (Local Time) from KEUG Reporting Station
Overcast Overcast  
Wind Chill: 51°   Ceiling: 4300
Heat Index: 51°   Visibility: 10mi
Dew Point: 49°   Wind: 0mph
Humidity: 92%   Direction: NA
Pressure: 30.3"   Gusts: NA
Location:  44.06°N, 123.45°W
Report Text: KEUG 260954Z AUTO 00000KT 10SM OVC043 11/09 A3030 RMK AO2 SLP261 T01060094
Loading
Personal Weather Stations






























Interactive Weather Map New forecast layout! Learn more

10-Day Weather Forecast

Advertisements
Track Severe Weather on mobile